Pagina principale
METAR-TAF:

METAR-TAF

Aeroporti :

Memmingen, Germania

latitudine: 47-59-33N, longitudine: 10-14-37E, altezza: 633 m

Osservazione

Il bollettino è stato emesso 44 minuti fa, alle 23:50 UTC
Vento 12 kt da ovest/nord-ovest
Temperature 5°C
Umidità 70%
Pressione 1010 hPa
Visibilità 10 km o più

METAR: EDJA 152350Z AUTO 30012KT 9999 // BKN026/// OVC035/// 05/00 Q1010

Ora: 02:34 (00:34 UTC)

Previsione

Il bollettino è stato emesso 7 ore e 34 minuti fa, alle 17:00 UTC
Previsione valida dal 15 alle 18 UTC al 16 alle 03 UTC
Vento 15 kt da ovest/sud-ovest con raffiche fino a 25 kt
Visibilità 10 km o più
Poco nuvoloso ad un'altezza di 5000 ft
Probabilità 40% :
Temporaneamente
dal 15 alle 21 UTC al 15 alle 23 UTC
Vento 25 kt da ovest/sud-ovest con raffiche fino a 40 kt
Nuvoloso ad un'altezza di 2000 ft, Cumulonembo.
rovesci di pioggia,

TAF: EDJA 151700Z 1518/1603 25015G25KT 9999 FEW050 PROB40 TEMPO 1521/1523 24025G40KT SHRA BKN020CB

Osservazioni e previsioni meteorologiche di più di 4000 aeroporti (messaggi METAR e TAF).

Le stazioni disponibili sono rappresentate dai dischi gialli e rossi sulla carta.

Puntare il mouse per vedere il nome della stazione.

Clicca sopra per visualizzare le osservazioni e previsioni meteorologiche.

Per cambiare la mappa : fare clic sui pulsanti verdi con una croce nera per ingrandire, il pulsante verde con un trattino per diminuire, o sulla freccia verde per le mappe adiacenti.


METAR-TAF: